createdAt,value
2017-09-25T00:00:54.258Z,69.60
2017-09-25T00:03:20.686Z,69.50
2017-09-25T00:05:47.089Z,68.90
2017-09-25T00:08:14.251Z,68.90
2017-09-25T00:10:40.638Z,68.80
2017-09-25T00:13:07.054Z,69.00
2017-09-25T00:15:34.201Z,69.10
2017-09-25T00:18:02.270Z,69.40
2017-09-25T00:20:29.408Z,69.70
2017-09-25T00:22:56.008Z,69.60
2017-09-25T00:25:22.410Z,69.80
2017-09-25T00:27:48.783Z,69.80
2017-09-25T00:30:15.217Z,69.90
2017-09-25T00:32:41.630Z,69.90
2017-09-25T00:35:08.045Z,70.00
2017-09-25T00:37:34.431Z,70.00
2017-09-25T00:40:00.873Z,69.70
2017-09-25T00:42:27.315Z,69.60
2017-09-25T00:44:54.508Z,70.40
2017-09-25T00:47:20.919Z,70.40
2017-09-25T00:49:47.351Z,70.60
2017-09-25T00:52:18.883Z,70.90
2017-09-25T00:54:46.061Z,71.00
2017-09-25T00:57:12.461Z,70.90
2017-09-25T00:59:45.822Z,70.70
2017-09-25T01:02:24.572Z,70.70
2017-09-25T01:05:00.211Z,70.40
2017-09-25T01:07:26.634Z,70.30
2017-09-25T01:09:53.033Z,70.70
2017-09-25T01:12:19.452Z,70.40
2017-09-25T01:14:45.857Z,71.00
2017-09-25T01:17:12.312Z,70.30
2017-09-25T01:19:38.796Z,70.20
2017-09-25T01:22:05.213Z,70.00
2017-09-25T01:24:31.660Z,70.10
2017-09-25T01:26:58.067Z,70.00
2017-09-25T01:29:24.510Z,70.20
2017-09-25T01:31:50.941Z,70.30
2017-09-25T01:34:17.352Z,70.40
2017-09-25T01:36:43.766Z,70.70
2017-09-25T01:39:10.944Z,70.30
2017-09-25T01:41:37.403Z,70.40
2017-09-25T01:44:04.541Z,70.80
2017-09-25T01:46:30.962Z,70.80
2017-09-25T01:48:57.352Z,70.70
2017-09-25T01:51:23.745Z,70.60
2017-09-25T01:53:50.135Z,71.10
2017-09-25T01:56:17.280Z,70.80
2017-09-25T01:58:44.417Z,71.00
2017-09-25T02:01:10.820Z,70.90
2017-09-25T02:03:37.250Z,70.90
2017-09-25T02:06:05.825Z,71.20
2017-09-25T02:08:32.243Z,71.40
2017-09-25T02:10:58.652Z,71.30
2017-09-25T02:13:25.143Z,70.90
2017-09-25T02:15:51.551Z,70.60
2017-09-25T02:18:17.981Z,71.10
2017-09-25T02:20:44.381Z,70.80
2017-09-25T02:23:10.792Z,70.80
2017-09-25T02:25:37.188Z,70.90
2017-09-25T02:28:03.606Z,71.20
2017-09-25T02:30:30.054Z,71.30
2017-09-25T02:32:56.551Z,71.20
2017-09-25T02:35:22.991Z,71.20
2017-09-25T02:37:49.378Z,71.20
2017-09-25T02:40:15.796Z,71.00
2017-09-25T02:42:42.211Z,71.00
2017-09-25T02:45:08.633Z,71.50
2017-09-25T02:47:35.036Z,71.60
2017-09-25T02:50:02.194Z,71.90
2017-09-25T02:52:29.336Z,71.80
2017-09-25T02:54:56.476Z,72.20
2017-09-25T02:57:22.873Z,72.20
2017-09-25T02:59:49.281Z,72.10
2017-09-25T03:02:15.681Z,72.20
2017-09-25T03:04:42.858Z,71.90
2017-09-25T03:07:09.255Z,71.90
2017-09-25T03:09:36.442Z,72.10
2017-09-25T03:12:02.829Z,72.10
2017-09-25T03:14:29.225Z,72.00
2017-09-25T03:16:55.676Z,72.60
2017-09-25T03:19:23.592Z,71.80
2017-09-25T03:21:49.993Z,71.80
2017-09-25T03:24:17.920Z,72.20
2017-09-25T03:26:44.326Z,72.20
2017-09-25T03:29:10.711Z,72.20
2017-09-25T03:31:37.126Z,72.00
2017-09-25T03:34:03.586Z,72.20
2017-09-25T03:36:30.018Z,72.20
2017-09-25T03:38:57.182Z,72.20
2017-09-25T03:41:23.596Z,72.30
2017-09-25T03:43:50.009Z,72.70
2017-09-25T03:46:16.432Z,72.60
2017-09-25T03:48:42.838Z,72.70
2017-09-25T03:51:09.236Z,72.50
2017-09-25T03:53:35.610Z,72.30
2017-09-25T03:56:02.013Z,72.00
2017-09-25T03:58:29.142Z,71.60
2017-09-25T04:00:55.540Z,71.60
2017-09-25T04:03:21.941Z,71.40
2017-09-25T04:05:49.086Z,72.30
2017-09-25T04:08:16.260Z,71.90
2017-09-25T04:10:42.712Z,71.80
2017-09-25T04:13:09.094Z,71.80
2017-09-25T04:15:36.281Z,71.10
2017-09-25T04:18:02.665Z,71.10
2017-09-25T04:20:29.098Z,71.30
2017-09-25T04:22:55.661Z,71.40
2017-09-25T04:25:22.096Z,71.90
2017-09-25T04:27:48.517Z,72.40
2017-09-25T04:30:15.673Z,72.50
2017-09-25T04:32:42.839Z,72.90
2017-09-25T04:35:09.489Z,72.90
2017-09-25T04:37:35.900Z,72.60
2017-09-25T04:40:02.358Z,72.90
2017-09-25T04:42:28.750Z,72.80
2017-09-25T04:44:55.989Z,72.70
2017-09-25T04:47:22.383Z,72.70
2017-09-25T04:49:48.779Z,72.50
2017-09-25T04:52:15.944Z,72.90
2017-09-25T04:54:42.348Z,72.90
2017-09-25T04:57:09.528Z,72.70
2017-09-25T04:59:35.953Z,72.70
2017-09-25T05:02:02.359Z,72.90
2017-09-25T05:04:28.750Z,72.60
2017-09-25T05:06:55.257Z,72.60
2017-09-25T05:09:21.680Z,72.80
2017-09-25T05:11:48.193Z,72.70
2017-09-25T05:14:14.605Z,72.80
2017-09-25T05:16:41.078Z,72.80
2017-09-25T05:19:07.520Z,72.70
2017-09-25T05:21:33.967Z,72.90
2017-09-25T05:24:00.483Z,72.90
2017-09-25T05:26:27.102Z,73.60
2017-09-25T05:28:53.557Z,73.40
2017-09-25T05:31:19.937Z,73.00
2017-09-25T05:33:46.348Z,73.00
2017-09-25T05:36:12.898Z,73.20
2017-09-25T05:38:39.316Z,73.10
2017-09-25T05:41:05.685Z,72.60
2017-09-25T05:43:32.820Z,72.80
2017-09-25T05:45:59.235Z,72.80
2017-09-25T05:48:25.673Z,73.00
2017-09-25T05:50:52.869Z,73.00
2017-09-25T05:53:20.038Z,73.00
2017-09-25T05:55:46.584Z,73.10
2017-09-25T05:58:12.982Z,73.00
2017-09-25T06:00:39.409Z,73.20
2017-09-25T06:03:05.795Z,73.20
2017-09-25T06:05:32.197Z,73.70
2017-09-25T06:07:59.341Z,73.30
2017-09-25T06:10:28.450Z,73.30
2017-09-25T06:12:54.918Z,73.20
2017-09-25T06:15:21.352Z,73.20
2017-09-25T06:17:47.769Z,73.10
2017-09-25T06:20:14.202Z,72.70
2017-09-25T06:22:40.642Z,72.80
2017-09-25T06:25:07.058Z,72.70
2017-09-25T06:27:33.491Z,72.50
2017-09-25T06:29:59.874Z,72.70
2017-09-25T06:32:26.278Z,72.90
2017-09-25T06:34:52.708Z,72.90
2017-09-25T06:37:19.139Z,72.50
2017-09-25T06:39:45.537Z,72.60
2017-09-25T06:42:11.985Z,72.20
2017-09-25T06:44:38.461Z,71.60
2017-09-25T06:47:04.906Z,71.30
2017-09-25T06:49:31.342Z,70.90
2017-09-25T06:51:57.738Z,71.10
2017-09-25T06:54:24.178Z,71.00
2017-09-25T06:56:50.613Z,70.90
2017-09-25T06:59:17.029Z,71.60
2017-09-25T07:01:43.440Z,70.90
2017-09-25T07:04:09.922Z,69.70
2017-09-25T07:06:36.360Z,69.70
2017-09-25T07:09:02.888Z,69.80
2017-09-25T07:11:30.069Z,69.20
2017-09-25T07:13:57.211Z,69.60
2017-09-25T07:16:23.622Z,69.60
2017-09-25T07:18:50.009Z,69.40
2017-09-25T07:21:16.438Z,69.10
2017-09-25T07:23:42.884Z,68.80
2017-09-25T07:26:09.321Z,68.50
2017-09-25T07:28:35.756Z,68.30
2017-09-25T07:31:02.191Z,67.30
2017-09-25T07:33:28.632Z,66.50
2017-09-25T07:35:55.071Z,65.70
2017-09-25T07:38:21.449Z,65.70
2017-09-25T07:40:48.608Z,65.50
2017-09-25T07:43:15.778Z,66.10
2017-09-25T07:45:42.426Z,66.10
2017-09-25T07:48:08.836Z,66.00
2017-09-25T07:50:35.236Z,65.80
2017-09-25T07:53:01.622Z,65.90
2017-09-25T07:55:28.071Z,66.10
2017-09-25T07:57:54.484Z,65.10
2017-09-25T08:00:20.905Z,65.00
2017-09-25T08:02:47.348Z,63.60
2017-09-25T08:05:13.763Z,64.20
2017-09-25T08:07:40.889Z,63.00
2017-09-25T08:10:07.346Z,62.90
2017-09-25T08:12:33.749Z,62.00
2017-09-25T08:15:00.181Z,62.20
2017-09-25T08:17:26.597Z,62.00
2017-09-25T08:19:53.048Z,60.70
2017-09-25T08:22:19.464Z,61.00
2017-09-25T08:24:45.882Z,61.50
2017-09-25T08:27:12.272Z,61.60
2017-09-25T08:29:39.452Z,61.50
2017-09-25T08:32:05.856Z,61.60
2017-09-25T08:34:33.016Z,61.80
2017-09-25T08:36:59.415Z,61.90
2017-09-25T08:39:26.637Z,62.20
2017-09-25T08:41:53.114Z,61.70
2017-09-25T08:44:19.538Z,61.50
2017-09-25T08:46:46.733Z,60.80
2017-09-25T08:49:13.309Z,61.30
2017-09-25T08:51:39.730Z,61.20
2017-09-25T08:54:06.247Z,61.70
2017-09-25T08:56:32.754Z,61.80
2017-09-25T08:58:59.377Z,60.70
2017-09-25T09:01:26.556Z,61.30
2017-09-25T09:03:53.006Z,61.30
2017-09-25T09:06:19.417Z,61.20
2017-09-25T09:08:45.886Z,61.90
2017-09-25T09:11:12.348Z,61.00
2017-09-25T09:13:38.770Z,61.10
2017-09-25T09:16:05.179Z,61.40
2017-09-25T09:18:31.584Z,61.20
2017-09-25T09:20:58.762Z,61.10
2017-09-25T09:23:25.224Z,61.50
2017-09-25T09:25:51.634Z,61.90
2017-09-25T09:28:18.089Z,63.00
2017-09-25T09:30:44.503Z,62.80
2017-09-25T09:33:10.933Z,61.50
2017-09-25T09:35:37.409Z,61.40
2017-09-25T09:38:03.831Z,62.00
2017-09-25T09:40:30.981Z,61.00
2017-09-25T09:42:57.341Z,61.00
2017-09-25T09:45:23.736Z,60.90
2017-09-25T09:47:50.130Z,61.60
2017-09-25T09:50:16.597Z,62.10
2017-09-25T09:52:43.065Z,62.30
2017-09-25T09:55:09.505Z,62.80
2017-09-25T09:57:35.908Z,63.20
2017-09-25T10:00:03.087Z,62.50
2017-09-25T10:02:29.497Z,62.50
2017-09-25T10:04:56.667Z,62.40
2017-09-25T10:07:23.125Z,62.30
2017-09-25T10:09:49.521Z,61.80
2017-09-25T10:12:16.679Z,61.20
2017-09-25T10:14:43.821Z,61.00
2017-09-25T10:17:10.949Z,61.50
2017-09-25T10:19:37.384Z,61.50
2017-09-25T10:22:03.777Z,60.60
2017-09-25T10:24:30.176Z,60.50
2017-09-25T10:26:57.336Z,59.30
2017-09-25T10:29:23.727Z,59.30
2017-09-25T10:31:50.170Z,59.20
2017-09-25T10:34:17.317Z,59.40
2017-09-25T10:36:44.533Z,59.20
2017-09-25T10:39:10.963Z,58.90
2017-09-25T10:41:37.415Z,58.90
2017-09-25T10:44:03.826Z,58.50
2017-09-25T10:46:31.008Z,59.00
2017-09-25T10:48:57.414Z,59.00
2017-09-25T10:51:23.850Z,60.00
2017-09-25T10:53:50.255Z,60.40
2017-09-25T10:56:16.679Z,60.80
2017-09-25T10:58:43.118Z,60.90
2017-09-25T11:01:09.512Z,60.20
2017-09-25T11:03:35.940Z,59.80
2017-09-25T11:06:02.348Z,59.50
2017-09-25T11:08:28.749Z,59.30
2017-09-25T11:10:55.163Z,57.90
2017-09-25T11:13:22.294Z,57.80
2017-09-25T11:15:48.727Z,57.80
2017-09-25T11:18:16.664Z,56.60
2017-09-25T11:20:43.085Z,56.60
2017-09-25T11:23:09.493Z,57.30
2017-09-25T11:25:35.935Z,56.50
2017-09-25T11:28:02.354Z,56.30
2017-09-25T11:30:28.788Z,57.50
2017-09-25T11:32:55.194Z,57.80
2017-09-25T11:35:21.597Z,57.50
2017-09-25T11:37:48.030Z,57.60
2017-09-25T11:40:14.531Z,57.20
2017-09-25T11:42:40.968Z,56.90
2017-09-25T11:45:07.379Z,56.10
2017-09-25T11:47:34.570Z,57.20
2017-09-25T11:50:00.977Z,57.20
2017-09-25T11:52:27.393Z,56.90
2017-09-25T11:54:54.514Z,57.20
2017-09-25T11:57:20.956Z,57.20
2017-09-25T11:59:48.112Z,55.50
2017-09-25T12:02:15.263Z,55.90
2017-09-25T12:04:42.418Z,55.00
2017-09-25T12:10:09.241Z,55.40
2017-09-25T12:12:35.651Z,55.10
2017-09-25T12:15:02.077Z,54.90
2017-09-25T12:17:28.587Z,55.40
2017-09-25T12:19:55.771Z,55.90
2017-09-25T12:22:22.198Z,55.90
2017-09-25T12:24:48.633Z,56.20
2017-09-25T12:27:15.069Z,55.80
2017-09-25T12:29:41.518Z,55.90
2017-09-25T12:32:07.934Z,56.00
2017-09-25T12:34:34.342Z,55.50
2017-09-25T12:37:01.521Z,55.90
2017-09-25T12:39:27.986Z,55.90
2017-09-25T12:41:54.408Z,55.90
2017-09-25T12:44:20.844Z,55.90
2017-09-25T12:46:47.282Z,54.30
2017-09-25T12:49:13.707Z,54.70
2017-09-25T12:51:40.184Z,54.90
2017-09-25T12:54:07.357Z,54.40
2017-09-25T12:56:34.513Z,54.20
2017-09-25T12:59:00.925Z,54.30
2017-09-25T13:01:28.087Z,54.10
2017-09-25T13:03:54.482Z,54.10
2017-09-25T13:06:20.852Z,54.20
2017-09-25T13:08:48.011Z,54.80
2017-09-25T13:11:14.410Z,54.80
2017-09-25T13:13:40.802Z,54.80
2017-09-25T13:16:07.198Z,56.00
2017-09-25T13:18:33.604Z,55.90
2017-09-25T13:21:00.008Z,55.70
2017-09-25T13:23:26.463Z,55.70
2017-09-25T13:25:52.878Z,55.80
2017-09-25T13:28:19.266Z,56.00
2017-09-25T13:30:45.693Z,56.10
2017-09-25T13:33:12.851Z,56.50
2017-09-25T13:35:39.298Z,56.50
2017-09-25T13:38:05.708Z,56.60
2017-09-25T13:40:32.849Z,56.90
2017-09-25T13:42:59.976Z,57.00
2017-09-25T13:45:26.395Z,57.00
2017-09-25T13:47:52.794Z,57.00
2017-09-25T13:50:19.209Z,57.60
2017-09-25T13:52:45.628Z,57.10
2017-09-25T13:55:12.776Z,57.30
2017-09-25T13:57:40.048Z,57.80
2017-09-25T14:02:38.517Z,57.90
2017-09-25T14:05:05.717Z,57.40
2017-09-25T14:07:32.189Z,57.40
2017-09-25T14:10:05.151Z,58.00
2017-09-25T14:12:31.580Z,57.90
2017-09-25T14:14:58.017Z,57.60
2017-09-25T14:17:24.426Z,56.80
2017-09-25T14:19:50.870Z,57.60
2017-09-25T14:22:17.292Z,57.60
2017-09-25T14:24:43.729Z,58.10
2017-09-25T14:27:10.154Z,57.80
2017-09-25T14:29:36.559Z,57.70
2017-09-25T14:32:03.731Z,56.90
2017-09-25T14:34:30.169Z,56.90
2017-09-25T14:36:56.602Z,57.00
2017-09-25T14:39:23.058Z,56.70
2017-09-25T14:41:50.205Z,56.60
2017-09-25T14:44:17.340Z,56.50
2017-09-25T14:46:43.734Z,56.50
2017-09-25T14:49:10.954Z,56.30
2017-09-25T14:51:37.435Z,56.30
2017-09-25T14:54:04.580Z,56.80
2017-09-25T14:56:31.749Z,56.90
2017-09-25T14:58:58.193Z,56.90
2017-09-25T15:01:24.615Z,57.50
2017-09-25T15:03:51.024Z,58.00
2017-09-25T15:06:18.198Z,58.10
2017-09-25T15:08:44.584Z,58.10
2017-09-25T15:11:10.965Z,57.60
2017-09-25T15:13:37.361Z,57.90
2017-09-25T15:16:03.760Z,58.00
2017-09-25T15:18:30.171Z,58.20
2017-09-25T15:20:56.592Z,58.30
2017-09-25T15:23:23.022Z,58.50
2017-09-25T15:25:50.220Z,59.00
2017-09-25T15:28:16.623Z,58.90
2017-09-25T15:30:43.101Z,59.70
2017-09-25T15:33:09.529Z,59.80
2017-09-25T15:35:35.964Z,60.10
2017-09-25T15:38:02.386Z,60.10
2017-09-25T15:40:28.799Z,60.10
2017-09-25T15:42:55.207Z,60.10
2017-09-25T15:45:21.601Z,60.10
2017-09-25T15:47:48.000Z,59.40
2017-09-25T15:50:14.425Z,59.80
2017-09-25T15:52:40.867Z,59.80
2017-09-25T15:55:07.340Z,59.90
2017-09-25T15:57:33.738Z,60.10
2017-09-25T16:00:00.195Z,60.70
2017-09-25T16:02:26.600Z,61.00
2017-09-25T16:04:53.078Z,60.90
2017-09-25T16:07:20.424Z,61.80
2017-09-25T16:09:46.820Z,61.80
2017-09-25T16:12:13.234Z,61.80
2017-09-25T16:14:39.659Z,62.00
2017-09-25T16:17:06.099Z,62.30
2017-09-25T16:19:32.523Z,62.20
2017-09-25T16:21:58.951Z,62.40
2017-09-25T16:24:26.082Z,62.40
2017-09-25T16:26:52.557Z,62.40
2017-09-25T16:29:18.942Z,63.20
2017-09-25T16:31:45.420Z,62.80
2017-09-25T16:34:11.840Z,62.90
2017-09-25T16:36:38.259Z,63.20
2017-09-25T16:39:05.440Z,63.80
2017-09-25T16:41:31.878Z,64.00
2017-09-25T16:43:59.017Z,64.00
2017-09-25T16:46:25.440Z,64.00
2017-09-25T16:48:51.865Z,63.60
2017-09-25T16:51:18.990Z,63.80
2017-09-25T16:53:45.452Z,63.70
2017-09-25T16:56:11.818Z,64.10
2017-09-25T16:58:38.225Z,64.30
2017-09-25T17:01:04.682Z,65.30
2017-09-25T17:03:31.097Z,64.60
2017-09-25T17:05:57.515Z,65.00
2017-09-25T17:08:23.956Z,65.40
2017-09-25T17:10:50.380Z,65.60
2017-09-25T17:13:17.541Z,66.30
2017-09-25T17:15:43.944Z,66.30
2017-09-25T17:18:11.121Z,67.00
2017-09-25T17:20:37.530Z,66.70
2017-09-25T17:23:04.664Z,66.50
2017-09-25T17:25:31.809Z,66.20
2017-09-25T17:27:58.227Z,66.10
2017-09-25T17:30:24.635Z,66.20
2017-09-25T17:32:51.036Z,66.20
2017-09-25T17:35:18.241Z,66.20
2017-09-25T17:37:44.665Z,66.10
2017-09-25T17:40:11.082Z,66.20
2017-09-25T17:42:37.493Z,65.80
2017-09-25T17:45:03.891Z,65.80
2017-09-25T17:47:30.321Z,65.30
2017-09-25T17:49:56.743Z,65.50
2017-09-25T17:52:23.128Z,65.80
2017-09-25T17:54:49.644Z,65.90
2017-09-25T17:57:16.080Z,65.40
2017-09-25T17:59:43.225Z,65.40
2017-09-25T18:02:10.907Z,65.50
2017-09-25T18:04:37.312Z,65.50
2017-09-25T18:07:04.459Z,66.10
2017-09-25T18:09:30.924Z,65.40
2017-09-25T18:11:57.325Z,65.80
2017-09-25T18:14:23.721Z,66.00
2017-09-25T18:16:50.156Z,66.10
2017-09-25T18:19:16.602Z,66.60
2017-09-25T18:21:43.025Z,65.80
2017-09-25T18:24:09.489Z,66.10
2017-09-25T18:26:35.949Z,66.10
2017-09-25T18:29:02.397Z,66.90
2017-09-25T18:31:28.865Z,67.60
2017-09-25T18:33:55.329Z,68.00
2017-09-25T18:36:22.525Z,66.90
2017-09-25T18:38:48.912Z,66.90
2017-09-25T18:41:15.344Z,66.80
2017-09-25T18:43:42.509Z,67.60
2017-09-25T18:46:09.656Z,67.70
2017-09-25T18:48:36.828Z,68.10
2017-09-25T18:51:03.280Z,68.10
2017-09-25T18:53:29.773Z,67.50
2017-09-25T18:55:56.942Z,68.20
2017-09-25T18:58:23.395Z,67.70
2017-09-25T19:00:49.851Z,67.40
2017-09-25T19:03:16.284Z,67.40
2017-09-25T19:05:43.428Z,67.30
2017-09-25T19:08:09.849Z,67.30
2017-09-25T19:10:36.286Z,67.70
2017-09-25T19:13:02.697Z,67.80
2017-09-25T19:15:29.139Z,67.90
2017-09-25T19:17:55.542Z,68.30
2017-09-25T19:20:22.716Z,68.40
2017-09-25T19:22:49.160Z,68.40
2017-09-25T19:25:15.586Z,68.10
2017-09-25T19:27:42.100Z,68.60
2017-09-25T19:30:08.556Z,67.90
2017-09-25T19:32:34.950Z,67.90
2017-09-25T19:35:02.143Z,68.30
2017-09-25T19:37:28.552Z,68.30
2017-09-25T19:39:54.984Z,68.70
2017-09-25T19:42:22.141Z,69.10
2017-09-25T19:44:48.572Z,69.10
2017-09-25T19:47:15.016Z,69.10
2017-09-25T19:49:46.503Z,69.10
2017-09-25T19:52:13.152Z,69.30
2017-09-25T19:54:49.128Z,69.60
2017-09-25T19:57:35.934Z,70.20
2017-09-25T20:00:03.117Z,70.30
2017-09-25T20:02:29.620Z,70.30
2017-09-25T20:04:56.784Z,69.80
2017-09-25T20:07:24.012Z,70.00
2017-09-25T20:09:50.435Z,69.90
2017-09-25T20:12:16.868Z,69.50
2017-09-25T20:14:46.253Z,69.50
2017-09-25T20:17:15.441Z,69.50
2017-09-25T20:19:41.972Z,69.80
2017-09-25T20:22:08.393Z,69.50
2017-09-25T20:24:34.824Z,69.80
2017-09-25T20:27:01.238Z,69.90
2017-09-25T20:29:28.392Z,69.50
2017-09-25T20:34:27.985Z,69.40
2017-09-25T20:36:55.959Z,69.70
2017-09-25T20:39:22.382Z,69.60
2017-09-25T20:41:52.712Z,69.10
2017-09-25T20:44:19.273Z,69.70
2017-09-25T20:46:45.703Z,69.80
2017-09-25T20:49:12.864Z,70.30
2017-09-25T20:51:39.262Z,70.20
2017-09-25T20:54:06.456Z,70.20
2017-09-25T20:56:32.915Z,70.10
2017-09-25T20:58:59.329Z,69.80
2017-09-25T21:01:25.770Z,69.70
2017-09-25T21:03:52.198Z,70.00
2017-09-25T21:06:18.628Z,70.00
2017-09-25T21:08:45.112Z,69.80
2017-09-25T21:11:11.559Z,69.80
2017-09-25T21:13:38.750Z,69.60
2017-09-25T21:16:05.161Z,69.50
2017-09-25T21:18:31.653Z,69.30
2017-09-25T21:20:58.046Z,69.60
2017-09-25T21:23:25.227Z,70.00
2017-09-25T21:25:54.604Z,70.00
2017-09-25T21:28:21.074Z,70.00
2017-09-25T21:30:48.229Z,70.20
2017-09-25T21:33:14.645Z,70.20
2017-09-25T21:35:41.059Z,70.60
2017-09-25T21:38:07.465Z,70.70
2017-09-25T21:40:33.882Z,70.60
2017-09-25T21:43:01.048Z,71.10
2017-09-25T21:45:27.438Z,71.00
2017-09-25T21:47:54.583Z,72.40
2017-09-25T21:50:34.786Z,71.90
2017-09-25T21:53:01.218Z,72.10
2017-09-25T21:55:40.870Z,71.90
2017-09-25T21:58:07.303Z,72.20
2017-09-25T22:00:33.802Z,72.20
2017-09-25T22:03:00.191Z,72.10
2017-09-25T22:05:26.601Z,72.70
2017-09-25T22:07:53.018Z,72.00
2017-09-25T22:10:20.225Z,71.90
2017-09-25T22:12:46.650Z,71.90
2017-09-25T22:15:13.054Z,71.60
2017-09-25T22:17:39.460Z,71.60
2017-09-25T22:20:06.632Z,71.30
2017-09-25T22:22:33.085Z,71.30
2017-09-25T22:24:59.464Z,71.50
2017-09-25T22:27:25.894Z,71.60
2017-09-25T22:29:52.306Z,71.70
2017-09-25T22:32:18.794Z,71.60
2017-09-25T22:34:45.225Z,72.00
2017-09-25T22:37:11.657Z,72.10
2017-09-25T22:39:38.096Z,72.30
2017-09-25T22:42:04.532Z,72.30
2017-09-25T22:44:30.981Z,72.30
2017-09-25T22:46:57.391Z,72.30
2017-09-25T22:49:23.832Z,72.60
2017-09-25T22:51:50.295Z,72.60
2017-09-25T22:54:17.480Z,72.70
2017-09-25T22:56:44.652Z,72.00
2017-09-25T22:59:11.084Z,72.50
2017-09-25T23:01:38.321Z,72.40
2017-09-25T23:04:09.349Z,72.40
2017-09-25T23:06:35.781Z,72.30
2017-09-25T23:09:02.225Z,72.30
2017-09-25T23:11:29.412Z,72.50
2017-09-25T23:13:55.861Z,72.20
2017-09-25T23:16:22.257Z,72.30
2017-09-25T23:18:48.694Z,72.40
2017-09-25T23:21:15.815Z,72.60
2017-09-25T23:23:42.230Z,72.60
2017-09-25T23:26:08.686Z,73.30
2017-09-25T23:28:35.860Z,73.00
2017-09-25T23:31:03.249Z,73.00
2017-09-25T23:33:29.664Z,72.90
2017-09-25T23:35:56.081Z,72.90
2017-09-25T23:38:23.220Z,72.90
2017-09-25T23:40:50.368Z,72.90
2017-09-25T23:43:16.775Z,72.90
2017-09-25T23:45:43.209Z,72.90
2017-09-25T23:48:09.610Z,73.20
2017-09-25T23:50:36.012Z,73.20
2017-09-25T23:53:02.442Z,73.30
2017-09-25T23:55:29.561Z,73.10
2017-09-25T23:57:55.964Z,73.10
